Time;durP1;ratioP1;P1;durP2;ratioP2;P2;SDS_P1;SDS_P2;PMS_P1;PMS_P2;Temp;Humidity;BMP_temperature;BMP_pressure;BME280_temperature;BME280_humidity;BME280_pressure;Samples;Min_cycle;Max_cycle;Signal;HPM_P1;HPM_P2
2023/10/08 00:03:13;;;;;;;3.53;0.70;;;13.30;99.90;;;;;;5072499;28;20389;-69
2023/10/08 00:05:39;;;;;;;5.57;0.80;;;13.30;99.90;;;;;;5054091;28;20436;-69
2023/10/08 00:08:06;;;;;;;1.00;0.47;;;13.30;99.90;;;;;;5071385;28;20115;-69
2023/10/08 00:10:42;;;;;;;2.60;0.60;;;13.30;99.90;;;;;;5054043;28;20040;-69
2023/10/08 00:13:09;;;;;;;2.55;0.40;;;13.30;99.90;;;;;;5071588;28;20044;-69
2023/10/08 00:15:52;;;;;;;2.50;0.80;;;13.40;99.90;;;;;;5071308;28;20040;-69
2023/10/08 00:18:19;;;;;;;1.95;0.70;;;13.30;99.90;;;;;;5071304;28;20124;-69
2023/10/08 00:21:27;;;;;;;1.38;0.40;;;13.40;99.90;;;;;;5070464;28;20058;-69
2023/10/08 00:23:35;;;;;;;2.10;0.50;;;13.40;99.90;;;;;;5054246;28;20049;-69
2023/10/08 00:26:06;;;;;;;2.33;0.52;;;13.40;99.90;;;;;;5034628;28;20044;-69
2023/10/08 00:28:32;;;;;;;4.30;0.50;;;13.40;99.90;;;;;;5050338;28;20045;-69
2023/10/08 00:31:05;;;;;;;2.47;0.90;;;13.40;99.90;;;;;;5052650;28;20359;-71
2023/10/08 00:33:31;;;;;;;4.10;0.75;;;13.40;99.90;;;;;;5049864;28;20486;-70
2023/10/08 00:35:57;;;;;;;4.90;0.60;;;13.50;99.90;;;;;;5050981;28;20049;-59
2023/10/08 00:38:25;;;;;;;2.30;0.60;;;13.50;99.90;;;;;;5058639;28;20044;-58
2023/10/08 00:40:55;;;;;;;2.50;0.50;;;13.40;99.90;;;;;;5071468;28;20048;-58
2023/10/08 00:43:35;;;;;;;2.63;0.60;;;13.40;99.90;;;;;;5057677;28;20049;-58
2023/10/08 00:46:06;;;;;;;3.45;0.80;;;13.50;99.90;;;;;;5050720;28;20033;-58
2023/10/08 00:48:36;;;;;;;1.85;0.60;;;13.40;99.90;;;;;;5033485;28;20044;-58
2023/10/08 00:51:59;;;;;;;1.88;0.30;;;13.40;99.90;;;;;;5050602;28;20052;-58
2023/10/08 00:54:05;;;;;;;2.00;0.50;;;13.50;99.90;;;;;;5044179;28;20448;-58
2023/10/08 00:56:46;;;;;;;0.95;0.40;;;13.50;99.90;;;;;;5053991;28;20095;-58
2023/10/08 00:59:15;;;;;;;2.70;0.40;;;13.50;99.90;;;;;;5054621;28;20040;-58
2023/10/08 01:01:51;;;;;;;2.25;0.43;;;13.50;99.90;;;;;;5054896;28;20045;-58
2023/10/08 01:04:26;;;;;;;2.30;0.55;;;13.50;99.90;;;;;;5054393;28;20040;-58
2023/10/08 01:07:12;;;;;;;3.45;0.70;;;13.50;99.90;;;;;;5037843;28;20478;-58
2023/10/08 01:09:39;;;;;;;0.95;0.43;;;13.50;99.90;;;;;;5037004;28;20119;-58
2023/10/08 01:14:48;;;;;;;3.25;0.73;;;13.50;99.90;;;;;;5054264;28;20054;-58
2023/10/08 01:17:16;;;;;;;2.20;0.50;;;13.50;99.90;;;;;;5053489;28;20045;-58
2023/10/08 01:19:50;;;;;;;1.70;0.50;;;13.50;99.90;;;;;;5054103;28;20048;-58
2023/10/08 01:22:21;;;;;;;5.55;0.85;;;13.50;99.90;;;;;;5037657;28;20128;-58
2023/10/08 01:24:48;;;;;;;6.10;1.30;;;13.50;99.90;;;;;;5053045;28;20053;-58
2023/10/08 01:27:24;;;;;;;1.23;0.50;;;13.50;99.90;;;;;;5054120;28;20041;-58
2023/10/08 01:29:53;;;;;;;3.80;0.70;;;13.60;99.90;;;;;;5070189;28;20054;-58
2023/10/08 01:32:21;;;;;;;4.10;1.00;;;13.50;99.90;;;;;;5073816;28;20032;-58
2023/10/08 01:34:48;;;;;;;3.83;0.70;;;13.40;99.90;;;;;;5075023;28;20081;-58
2023/10/08 01:37:18;;;;;;;1.88;0.57;;;13.50;99.90;;;;;;5073836;28;20056;-58
2023/10/08 01:39:49;;;;;;;3.03;0.60;;;13.50;99.90;;;;;;5073867;28;20477;-58
2023/10/08 01:42:17;;;;;;;2.78;0.70;;;13.50;99.90;;;;;;5074039;28;20067;-58
2023/10/08 01:44:50;;;;;;;2.67;0.60;;;13.50;99.90;;;;;;5072762;28;20044;-58
2023/10/08 01:47:16;;;;;;;7.32;0.95;;;13.60;99.90;;;;;;5073639;28;20542;-58
2023/10/08 01:49:45;;;;;;;3.35;0.90;;;13.50;99.90;;;;;;5073578;28;20479;-59
2023/10/08 01:52:20;;;;;;;4.90;0.90;;;13.50;99.90;;;;;;5072657;28;20040;-58
2023/10/08 01:54:46;;;;;;;4.75;0.90;;;13.50;99.90;;;;;;5073542;28;20040;-58
2023/10/08 01:57:12;;;;;;;2.95;0.68;;;13.50;99.90;;;;;;5059183;28;20048;-58
2023/10/08 01:59:38;;;;;;;5.18;0.90;;;13.50;99.90;;;;;;5052455;28;20052;-58
2023/10/08 02:02:05;;;;;;;4.85;1.10;;;13.50;99.90;;;;;;5053336;28;20483;-58
2023/10/08 02:04:35;;;;;;;5.38;1.00;;;13.60;99.90;;;;;;5055272;28;20037;-58
2023/10/08 02:07:07;;;;;;;3.83;0.93;;;13.60;99.90;;;;;;5036201;28;20048;-58
2023/10/08 02:09:34;;;;;;;5.05;1.08;;;13.70;99.90;;;;;;5053121;28;20493;-58
2023/10/08 02:12:00;;;;;;;6.68;1.10;;;13.60;99.90;;;;;;5052645;28;20047;-58
2023/10/08 02:14:30;;;;;;;3.42;1.08;;;13.60;99.90;;;;;;5053519;28;20041;-58
2023/10/08 02:17:01;;;;;;;3.58;1.00;;;13.60;99.90;;;;;;5053393;28;20045;-58
2023/10/08 02:19:28;;;;;;;8.80;1.50;;;13.60;99.90;;;;;;5053483;28;20459;-58
2023/10/08 02:21:54;;;;;;;2.63;0.90;;;13.60;99.90;;;;;;5053025;28;20486;-58
2023/10/08 02:24:24;;;;;;;3.17;1.17;;;13.60;99.90;;;;;;5052883;28;20072;-58
2023/10/08 02:26:54;;;;;;;5.57;1.30;;;13.60;99.90;;;;;;5052139;28;20134;-58
2023/10/08 02:29:21;;;;;;;5.07;1.00;;;13.60;99.90;;;;;;5052934;28;20049;-58
2023/10/08 02:31:47;;;;;;;4.47;1.08;;;13.60;99.90;;;;;;5052841;28;20033;-57
2023/10/08 02:34:13;;;;;;;5.00;1.08;;;13.60;99.90;;;;;;5052031;28;20155;-58
2023/10/08 02:36:40;;;;;;;3.15;1.08;;;13.70;99.90;;;;;;5052604;28;20379;-58
2023/10/08 02:39:25;;;;;;;4.65;1.25;;;13.60;99.90;;;;;;5052764;28;20509;-58
2023/10/08 02:41:52;;;;;;;4.80;1.30;;;13.70;99.90;;;;;;5068611;28;20045;-58
2023/10/08 02:44:20;;;;;;;3.95;1.20;;;13.60;99.90;;;;;;5053840;28;20132;-58
2023/10/08 02:46:48;;;;;;;5.75;1.38;;;13.60;99.90;;;;;;5053633;28;20437;-58
2023/10/08 02:49:20;;;;;;;5.97;1.25;;;13.60;99.90;;;;;;5052896;28;20047;-58
2023/10/08 02:51:51;;;;;;;4.03;1.00;;;13.60;99.90;;;;;;5035847;28;20045;-58
2023/10/08 02:54:23;;;;;;;6.45;1.73;;;13.60;99.90;;;;;;5051574;28;20086;-58
2023/10/08 02:56:51;;;;;;;3.80;1.33;;;13.70;99.90;;;;;;5063203;28;20044;-58
2023/10/08 02:59:22;;;;;;;3.78;1.00;;;13.60;99.90;;;;;;5053441;28;20152;-58
2023/10/08 03:01:49;;;;;;;5.03;1.38;;;13.70;99.90;;;;;;5062291;28;20044;-58
2023/10/08 03:04:18;;;;;;;4.95;1.35;;;13.60;99.90;;;;;;5071914;28;20515;-58
2023/10/08 03:06:52;;;;;;;3.05;1.10;;;13.60;99.90;;;;;;5072259;28;20040;-58
2023/10/08 03:09:23;;;;;;;5.35;1.27;;;13.60;99.90;;;;;;5071143;28;20083;-58
2023/10/08 03:11:51;;;;;;;7.10;2.03;;;13.60;99.90;;;;;;5072138;28;20086;-58
2023/10/08 03:14:23;;;;;;;5.78;1.38;;;13.60;99.90;;;;;;5071307;28;20481;-58
2023/10/08 03:16:49;;;;;;;5.80;1.40;;;13.60;99.90;;;;;;5072278;28;20439;-58
2023/10/08 03:19:18;;;;;;;6.28;1.63;;;13.60;99.90;;;;;;5072897;28;20066;-57
2023/10/08 03:21:50;;;;;;;2.85;1.30;;;13.60;99.90;;;;;;5072162;28;20049;-58
2023/10/08 03:24:36;;;;;;;4.00;0.98;;;13.60;99.90;;;;;;5072257;28;20471;-58
2023/10/08 03:27:06;;;;;;;4.32;1.08;;;13.60;99.90;;;;;;5057237;28;20122;-58
2023/10/08 03:29:41;;;;;;;3.75;1.10;;;13.50;99.90;;;;;;5050803;28;20124;-58
2023/10/08 03:32:17;;;;;;;4.78;1.08;;;13.50;99.90;;;;;;5051488;28;20045;-58
2023/10/08 03:34:50;;;;;;;5.32;1.38;;;13.50;99.90;;;;;;5051609;28;20047;-58
2023/10/08 03:37:21;;;;;;;4.97;1.90;;;13.50;99.90;;;;;;5052103;28;20059;-58
2023/10/08 03:39:50;;;;;;;4.03;1.13;;;13.50;99.90;;;;;;5051428;28;20079;-58
2023/10/08 03:42:23;;;;;;;7.13;1.83;;;13.60;99.90;;;;;;5051420;28;20047;-58
2023/10/08 03:44:55;;;;;;;5.97;1.38;;;13.60;99.90;;;;;;5050779;28;20486;-58
2023/10/08 03:47:26;;;;;;;4.32;1.23;;;13.60;99.90;;;;;;5051117;28;20047;-58
2023/10/08 03:49:55;;;;;;;3.72;1.25;;;13.50;99.90;;;;;;5051249;28;20120;-58
2023/10/08 03:52:25;;;;;;;5.57;1.35;;;13.50;99.90;;;;;;5033857;28;20127;-58
2023/10/08 03:57:41;;;;;;;5.75;1.50;;;13.60;99.90;;;;;;5070917;28;20079;-58
2023/10/08 04:00:28;;;;;;;4.70;1.55;;;13.60;99.90;;;;;;5071222;28;20040;-58
2023/10/08 04:02:55;;;;;;;5.40;1.50;;;13.60;99.90;;;;;;5071217;28;20119;-58
2023/10/08 04:05:27;;;;;;;6.50;1.42;;;13.60;99.90;;;;;;5070120;28;20063;-58
2023/10/08 04:13:08;;;;;;;7.40;1.75;;;13.60;99.90;;;;;;5067098;28;20051;-58
2023/10/08 04:15:34;;;;;;;8.15;2.20;;;13.60;99.90;;;;;;5052463;28;20060;-58
2023/10/08 04:18:02;;;;;;;4.68;1.45;;;13.60;99.90;;;;;;5051094;28;20049;-58
2023/10/08 04:20:38;;;;;;;6.60;1.58;;;13.60;99.90;;;;;;5049957;28;20067;-58
2023/10/08 04:23:20;;;;;;;7.93;1.90;;;13.60;99.90;;;;;;5050910;28;20045;-58
2023/10/08 04:25:47;;;;;;;7.65;1.50;;;13.60;99.90;;;;;;5055201;28;20052;-58
2023/10/08 04:28:17;;;;;;;11.65;1.80;;;13.60;99.90;;;;;;5070710;28;20129;-58
2023/10/08 04:30:45;;;;;;;7.03;1.88;;;13.60;99.90;;;;;;5063696;28;20090;-58
2023/10/08 04:33:14;;;;;;;9.30;2.00;;;13.50;99.90;;;;;;5051076;28;20047;-58
2023/10/08 04:35:48;;;;;;;7.43;1.42;;;13.50;99.90;;;;;;5050726;28;20401;-58
2023/10/08 04:38:22;;;;;;;5.60;2.10;;;13.50;99.90;;;;;;5051004;28;20366;-58
2023/10/08 04:40:50;;;;;;;7.75;2.05;;;13.50;99.90;;;;;;5051279;28;20044;-57
2023/10/08 04:43:30;;;;;;;8.48;1.80;;;13.50;99.90;;;;;;5051759;28;20037;-58
2023/10/08 04:46:05;;;;;;;6.07;1.42;;;13.50;99.90;;;;;;5050607;28;20041;-57
2023/10/08 04:48:32;;;;;;;11.75;2.45;;;13.50;99.90;;;;;;5049903;28;20378;-58
2023/10/08 04:50:59;;;;;;;9.32;1.80;;;13.50;99.90;;;;;;5050638;28;20053;-58
2023/10/08 04:53:40;;;;;;;9.02;2.42;;;13.50;99.90;;;;;;5051706;28;20398;-58
2023/10/08 04:56:16;;;;;;;10.20;1.98;;;13.50;99.90;;;;;;5038439;28;20048;-58
2023/10/08 04:58:47;;;;;;;12.63;2.72;;;13.50;99.90;;;;;;5050523;28;20049;-58
2023/10/08 05:01:17;;;;;;;9.35;1.80;;;13.40;99.90;;;;;;5049615;28;20081;-58
2023/10/08 05:25:11;;;;;;;7.05;1.63;;;13.30;99.90;;;;;;5083905;28;20083;-71
2023/10/08 05:38:16;;;;;;;5.72;1.95;;;13.30;99.90;;;;;;5065763;28;20549;-71
2023/10/08 06:13:06;;;;;;;11.57;6.50;;;13.00;99.90;;;;;;5033182;28;20395;-58
2023/10/08 06:15:48;;;;;;;16.33;8.25;;;13.10;99.90;;;;;;5066494;28;20056;-58
2023/10/08 06:18:27;;;;;;;8.10;4.00;;;13.10;99.90;;;;;;5052688;28;20601;-58
2023/10/08 06:20:58;;;;;;;8.65;4.03;;;13.00;99.90;;;;;;5053144;28;20045;-59
2023/10/08 06:23:25;;;;;;;7.88;4.38;;;13.10;99.90;;;;;;5061884;28;20041;-58
2023/10/08 06:26:05;;;;;;;11.25;4.90;;;13.10;99.90;;;;;;5051859;28;20053;-58
2023/10/08 06:28:31;;;;;;;9.48;4.07;;;13.10;99.90;;;;;;5052586;28;20102;-59
2023/10/08 06:30:56;;;;;;;10.02;3.63;;;13.10;99.90;;;;;;5056618;28;20422;-58
2023/10/08 06:33:30;;;;;;;9.05;4.07;;;13.10;99.90;;;;;;5060414;28;20457;-58
2023/10/08 06:36:13;;;;;;;9.35;3.55;;;13.10;99.90;;;;;;5053015;28;20040;-58
2023/10/08 06:38:51;;;;;;;6.75;3.22;;;13.10;99.90;;;;;;5032505;28;20120;-58
2023/10/08 06:41:24;;;;;;;6.65;3.38;;;13.20;99.90;;;;;;5045976;28;20071;-58
2023/10/08 06:43:51;;;;;;;12.82;4.38;;;13.20;99.90;;;;;;5036989;28;20518;-58
2023/10/08 06:46:19;;;;;;;10.52;4.25;;;13.10;99.90;;;;;;5050568;28;20041;-58
2023/10/08 06:48:45;;;;;;;7.68;3.53;;;13.20;99.90;;;;;;5060630;28;20045;-58
2023/10/08 06:51:17;;;;;;;9.70;4.75;;;13.20;99.90;;;;;;5049124;28;20057;-58
2023/10/08 06:53:45;;;;;;;11.85;4.70;;;13.20;99.90;;;;;;5052528;28;20133;-58
2023/10/08 06:56:15;;;;;;;9.00;3.58;;;13.20;99.90;;;;;;5049738;28;20048;-58
2023/10/08 06:58:48;;;;;;;11.75;3.50;;;13.30;99.90;;;;;;5049409;28;20045;-58
2023/10/08 07:01:38;;;;;;;9.57;3.95;;;13.30;99.90;;;;;;5065843;28;20053;-58
2023/10/08 07:04:12;;;;;;;10.80;7.93;;;13.40;99.90;;;;;;5049878;28;20087;-57
2023/10/08 07:06:39;;;;;;;28.27;21.38;;;13.30;99.90;;;;;;5061480;28;20409;-58
2023/10/08 07:09:06;;;;;;;17.17;10.55;;;13.30;99.90;;;;;;5065262;28;20050;-58
2023/10/08 07:11:35;;;;;;;14.23;8.48;;;13.40;99.90;;;;;;5054658;28;20055;-58
2023/10/08 07:14:04;;;;;;;13.07;7.28;;;13.40;99.90;;;;;;5050934;28;20076;-58
2023/10/08 07:16:31;;;;;;;11.05;4.40;;;13.50;99.90;;;;;;5057497;28;20489;-58
2023/10/08 07:19:05;;;;;;;10.07;4.03;;;13.50;99.90;;;;;;5057891;28;20123;-58
2023/10/08 07:21:44;;;;;;;8.55;3.80;;;13.50;99.90;;;;;;5050183;28;20041;-58
2023/10/08 07:24:15;;;;;;;13.60;6.80;;;13.60;99.90;;;;;;5030750;28;20599;-58
2023/10/08 07:26:46;;;;;;;11.25;3.58;;;13.50;99.90;;;;;;5051961;28;20045;-58
2023/10/08 07:29:16;;;;;;;8.80;4.07;;;13.50;99.90;;;;;;5038576;28;20036;-58
2023/10/08 07:31:43;;;;;;;9.90;5.65;;;13.50;99.90;;;;;;5052768;28;20542;-58
2023/10/08 07:37:05;;;;;;;6.85;2.38;;;13.50;99.90;;;;;;5038562;28;20049;-57
2023/10/08 07:41:58;;;;;;;7.85;1.90;;;13.50;99.90;;;;;;5049152;28;20509;-58
2023/10/08 07:44:29;;;;;;;9.18;2.60;;;13.60;99.90;;;;;;5047937;28;20108;-58
2023/10/08 07:46:54;;;;;;;4.70;1.70;;;13.50;99.90;;;;;;5048914;28;20094;-57
2023/10/08 07:49:29;;;;;;;6.75;2.08;;;13.40;99.90;;;;;;5066664;28;20462;-58
2023/10/08 07:51:58;;;;;;;8.85;2.13;;;13.40;99.90;;;;;;5048315;28;20049;-57
2023/10/08 07:54:27;;;;;;;11.18;2.80;;;13.40;99.90;;;;;;5048836;28;20060;-58
2023/10/08 07:57:08;;;;;;;8.98;2.45;;;13.30;99.90;;;;;;5081675;28;20037;-58
2023/10/08 07:59:38;;;;;;;8.43;3.53;;;13.30;99.90;;;;;;5049753;28;20051;-58
2023/10/08 08:02:09;;;;;;;12.13;5.07;;;13.30;99.90;;;;;;5049026;28;20037;-58
2023/10/08 08:04:36;;;;;;;7.38;2.83;;;13.40;99.90;;;;;;5047907;28;20131;-58
2023/10/08 08:07:04;;;;;;;8.05;2.45;;;13.40;99.90;;;;;;5082368;28;20052;-58
2023/10/08 08:09:30;;;;;;;4.18;1.70;;;13.40;99.90;;;;;;5048135;28;20059;-58
2023/10/08 08:11:57;;;;;;;8.10;3.40;;;13.40;99.90;;;;;;5054736;28;20033;-59
2023/10/08 08:14:24;;;;;;;10.15;3.45;;;13.50;99.90;;;;;;5082980;28;20056;-58
2023/10/08 08:16:51;;;;;;;8.00;2.97;;;13.50;99.90;;;;;;5048356;28;20056;-58
2023/10/08 08:19:24;;;;;;;8.85;3.28;;;13.60;99.90;;;;;;5049882;28;20099;-58
2023/10/08 08:21:49;;;;;;;8.13;3.08;;;13.60;99.90;;;;;;5039298;28;20041;-59
2023/10/08 08:24:28;;;;;;;10.98;2.97;;;13.70;99.90;;;;;;5048125;28;20084;-58
2023/10/08 08:27:23;;;;;;;12.90;4.20;;;13.70;99.90;;;;;;5051525;28;20127;-58
2023/10/08 08:29:54;;;;;;;10.05;3.28;;;13.80;99.90;;;;;;5045048;28;20041;-59
2023/10/08 08:32:21;;;;;;;12.02;3.67;;;13.80;99.90;;;;;;5054357;28;20436;-58
2023/10/08 08:34:50;;;;;;;9.88;2.20;;;13.80;99.90;;;;;;5029235;28;20513;-58
2023/10/08 08:37:16;;;;;;;7.13;2.17;;;13.90;99.90;;;;;;5044845;28;20414;-58
2023/10/08 08:39:42;;;;;;;7.97;2.72;;;13.90;99.90;;;;;;5048382;28;20056;-58
2023/10/08 08:42:10;;;;;;;10.48;3.53;;;13.90;99.90;;;;;;5053282;28;20032;-58
2023/10/08 08:44:45;;;;;;;10.50;2.78;;;13.90;99.90;;;;;;5067160;28;20080;-58
2023/10/08 08:47:17;;;;;;;6.72;2.03;;;14.00;99.90;;;;;;5062710;28;20043;-58
2023/10/08 08:49:47;;;;;;;10.48;2.33;;;14.00;99.90;;;;;;5047935;28;20075;-58
2023/10/08 08:52:14;;;;;;;7.38;2.22;;;14.00;99.90;;;;;;5051452;28;20087;-58
2023/10/08 08:54:43;;;;;;;7.20;2.65;;;14.10;99.90;;;;;;5047357;28;20297;-58
2023/10/08 08:57:13;;;;;;;8.65;2.55;;;14.10;99.90;;;;;;5047187;28;20120;-58
2023/10/08 08:59:57;;;;;;;13.25;4.50;;;14.00;99.90;;;;;;5047961;28;20052;-58
2023/10/08 09:02:23;;;;;;;8.65;3.42;;;14.10;99.90;;;;;;5048237;28;20095;-58
2023/10/08 09:04:49;;;;;;;10.60;2.83;;;14.10;99.90;;;;;;5048925;28;20727;-58
2023/10/08 09:07:15;;;;;;;7.38;2.00;;;14.20;99.90;;;;;;5051357;28;20044;-58
2023/10/08 09:09:41;;;;;;;6.72;2.17;;;14.20;99.90;;;;;;5069258;28;20048;-58
2023/10/08 09:12:10;;;;;;;10.80;2.88;;;14.30;99.90;;;;;;5067974;28;20047;-73
2023/10/08 09:14:36;;;;;;;8.20;1.90;;;14.40;99.90;;;;;;5072132;28;20045;-74
2023/10/08 09:17:04;;;;;;;5.18;1.67;;;14.40;99.90;;;;;;5072470;28;20050;-74
2023/10/08 09:19:30;;;;;;;8.93;1.73;;;14.40;99.90;;;;;;5072358;28;20095;-74
2023/10/08 09:22:11;;;;;;;8.90;2.70;;;14.40;99.90;;;;;;5065506;28;20068;-73
2023/10/08 09:24:38;;;;;;;6.43;2.00;;;14.40;99.90;;;;;;5054266;28;20128;-73
2023/10/08 09:27:12;;;;;;;6.15;1.90;;;14.50;99.90;;;;;;5069689;28;20075;-73
2023/10/08 09:29:40;;;;;;;6.53;1.83;;;14.60;99.90;;;;;;5070314;28;20040;-73
2023/10/08 09:32:09;;;;;;;8.20;1.92;;;14.70;99.90;;;;;;5059860;28;20074;-73
2023/10/08 09:34:35;;;;;;;8.60;1.88;;;14.70;99.90;;;;;;5056339;28;20056;-73
2023/10/08 09:37:01;;;;;;;9.77;2.17;;;14.80;99.90;;;;;;5064100;28;20044;-73
2023/10/08 09:39:30;;;;;;;7.78;1.90;;;14.80;99.90;;;;;;5052137;28;20573;-73
2023/10/08 09:41:57;;;;;;;9.85;1.92;;;14.80;99.90;;;;;;5061615;28;20099;-73
2023/10/08 09:44:25;;;;;;;8.23;1.80;;;14.90;99.90;;;;;;5063862;28;20806;-72
2023/10/08 09:47:04;;;;;;;6.80;2.17;;;14.90;99.90;;;;;;5049184;28;20082;-72
2023/10/08 09:49:43;;;;;;;6.55;1.60;;;15.00;99.90;;;;;;5047660;28;20083;-73
2023/10/08 09:52:10;;;;;;;7.03;2.17;;;15.10;99.90;;;;;;5061610;28;20041;-71
2023/10/08 09:54:56;;;;;;;6.65;1.95;;;15.10;99.90;;;;;;5062293;28;20040;-70
2023/10/08 09:57:25;;;;;;;10.93;2.10;;;15.20;99.90;;;;;;5062924;28;20440;-72
2023/10/08 09:59:51;;;;;;;8.75;2.03;;;15.30;99.90;;;;;;5054523;28;20037;-73
2023/10/08 10:02:21;;;;;;;11.27;2.17;;;15.30;99.90;;;;;;5061842;28;20086;-72
2023/10/08 10:04:52;;;;;;;10.00;2.45;;;15.30;99.90;;;;;;5067734;28;20055;-72
2023/10/08 10:07:20;;;;;;;6.30;1.85;;;15.40;99.90;;;;;;5049963;28;20036;-72
2023/10/08 10:09:50;;;;;;;10.07;2.20;;;15.40;99.90;;;;;;5064580;28;20051;-72
2023/10/08 10:12:25;;;;;;;5.30;1.30;;;15.50;99.90;;;;;;5061109;28;20094;-72
2023/10/08 10:14:55;;;;;;;11.98;2.78;;;15.50;99.90;;;;;;5070850;28;20045;-72
2023/10/08 10:17:25;;;;;;;6.55;1.55;;;15.50;99.90;;;;;;5061108;28;20107;-72
2023/10/08 10:20:00;;;;;;;8.00;1.88;;;15.50;99.90;;;;;;5062629;28;20045;-72
2023/10/08 10:22:34;;;;;;;9.38;2.35;;;15.60;99.90;;;;;;5057789;28;20083;-72
2023/10/08 10:25:14;;;;;;;5.22;1.42;;;15.60;99.90;;;;;;5028680;28;20085;-72
2023/10/08 10:27:42;;;;;;;8.13;2.08;;;15.80;99.90;;;;;;5059606;28;20056;-72
2023/10/08 10:30:12;;;;;;;5.88;1.90;;;15.80;99.90;;;;;;5051541;28;20112;-72
2023/10/08 10:32:38;;;;;;;8.25;1.42;;;15.90;99.90;;;;;;5059203;28;20052;-73
2023/10/08 10:35:11;;;;;;;7.72;1.52;;;15.90;99.90;;;;;;5070916;28;20138;-73
2023/10/08 10:37:51;;;;;;;7.15;1.60;;;15.90;99.90;;;;;;5063841;28;20048;-73
2023/10/08 10:40:39;;;;;;;5.28;1.33;;;15.90;99.90;;;;;;5050163;28;20485;-73
2023/10/08 10:43:10;;;;;;;7.22;2.20;;;15.90;99.90;;;;;;5035023;28;20048;-73
2023/10/08 10:45:36;;;;;;;8.13;1.92;;;15.90;99.90;;;;;;5050054;28;20067;-73
2023/10/08 10:48:21;;;;;;;4.50;1.50;;;16.00;99.90;;;;;;5060470;28;20166;-73
2023/10/08 10:51:07;;;;;;;10.10;2.13;;;16.00;99.90;;;;;;5050015;28;20837;-73
2023/10/08 10:53:56;;;;;;;8.00;1.98;;;16.00;99.90;;;;;;5049819;28;20124;-72
2023/10/08 10:56:29;;;;;;;7.40;1.95;;;16.20;99.90;;;;;;5053059;28;20052;-72
2023/10/08 10:59:18;;;;;;;9.65;2.47;;;16.30;99.90;;;;;;5066957;28;20398;-72
2023/10/08 11:01:52;;;;;;;4.82;1.23;;;16.30;99.90;;;;;;5068131;28;20397;-72
2023/10/08 11:04:19;;;;;;;4.87;1.77;;;16.40;99.90;;;;;;5069629;28;20115;-73
2023/10/08 11:06:51;;;;;;;8.43;1.65;;;16.40;99.90;;;;;;5066776;28;20567;-71
2023/10/08 11:09:31;;;;;;;9.70;2.35;;;16.40;99.90;;;;;;5056786;28;20091;-73
2023/10/08 11:11:59;;;;;;;9.18;1.98;;;16.40;99.90;;;;;;5050676;28;20041;-73
2023/10/08 11:14:25;;;;;;;9.65;2.03;;;16.30;99.90;;;;;;5084997;28;20123;-73
2023/10/08 11:16:51;;;;;;;6.00;1.52;;;16.30;99.90;;;;;;5070920;28;20040;-73
2023/10/08 11:19:19;;;;;;;10.98;2.55;;;16.30;99.90;;;;;;5053015;28;20044;-73
2023/10/08 11:21:50;;;;;;;9.38;2.22;;;16.20;99.90;;;;;;5070310;28;20124;-73
2023/10/08 11:24:27;;;;;;;5.93;1.88;;;16.30;99.90;;;;;;5052945;28;20037;-73
2023/10/08 11:29:47;;;;;;;10.48;3.67;;;16.30;99.90;;;;;;5014205;28;20055;-73
2023/10/08 11:32:25;;;;;;;7.57;2.60;;;16.30;99.90;;;;;;5065878;28;20482;-73
2023/10/08 11:35:01;;;;;;;6.72;2.25;;;16.40;99.90;;;;;;5066991;28;20044;-73
2023/10/08 11:37:28;;;;;;;13.05;3.72;;;16.40;99.90;;;;;;5049360;28;20563;-73
2023/10/08 11:39:58;;;;;;;6.93;1.67;;;16.40;99.90;;;;;;5052271;28;20174;-71
2023/10/08 11:45:17;;;;;;;6.78;1.88;;;16.40;99.90;;;;;;5048960;28;20124;-73
2023/10/08 11:47:55;;;;;;;11.63;2.28;;;16.40;99.90;;;;;;5048965;28;20064;-73
2023/10/08 11:50:30;;;;;;;12.20;3.70;;;16.40;99.90;;;;;;5063479;28;20055;-73
2023/10/08 11:53:01;;;;;;;11.77;2.33;;;16.40;99.90;;;;;;5069664;28;20113;-72
2023/10/08 11:55:27;;;;;;;7.57;2.03;;;16.40;99.90;;;;;;5067959;28;20110;-73
2023/10/08 11:57:53;;;;;;;7.63;2.72;;;16.40;99.90;;;;;;5101970;28;20036;-73
2023/10/08 12:00:19;;;;;;;12.25;3.55;;;16.40;99.90;;;;;;5068230;28;20048;-73
2023/10/08 12:02:49;;;;;;;12.32;2.63;;;16.40;99.90;;;;;;5067570;28;20112;-73
2023/10/08 12:05:23;;;;;;;11.68;1.90;;;16.40;99.90;;;;;;5068302;28;20049;-73
2023/10/08 12:07:52;;;;;;;6.30;2.77;;;16.40;99.90;;;;;;5068156;28;20057;-69
2023/10/08 12:10:24;;;;;;;7.32;1.50;;;16.40;99.90;;;;;;5059212;28;20727;-72
2023/10/08 12:12:54;;;;;;;7.70;2.67;;;16.40;99.90;;;;;;5052814;28;20085;-72
2023/10/08 12:15:30;;;;;;;6.35;1.65;;;16.40;99.90;;;;;;5047897;28;20048;-72
2023/10/08 12:18:11;;;;;;;12.27;3.05;;;16.40;99.90;;;;;;5047412;28;20096;-72
2023/10/08 12:20:44;;;;;;;5.55;2.15;;;16.40;99.90;;;;;;5067182;28;20482;-73
2023/10/08 12:23:33;;;;;;;6.85;2.45;;;16.50;99.90;;;;;;5068047;28;20059;-72
2023/10/08 12:25:59;;;;;;;7.90;2.35;;;16.50;99.90;;;;;;5065201;28;20113;-73
2023/10/08 12:28:29;;;;;;;7.30;1.67;;;16.50;99.90;;;;;;5068009;28;20461;-72
2023/10/08 12:31:00;;;;;;;5.85;1.58;;;16.60;99.90;;;;;;5063733;28;20071;-72
2023/10/08 12:33:28;;;;;;;7.82;1.90;;;16.60;99.90;;;;;;5057796;28;20124;-73
2023/10/08 12:35:56;;;;;;;7.03;2.28;;;16.70;99.90;;;;;;5048108;28;20041;-72
2023/10/08 12:38:22;;;;;;;9.85;1.70;;;16.80;99.90;;;;;;5030519;28;20044;-73
2023/10/08 12:40:54;;;;;;;9.02;2.85;;;16.80;99.90;;;;;;5047707;28;20051;-72
2023/10/08 12:43:22;;;;;;;6.65;2.08;;;16.80;99.90;;;;;;5047304;28;20080;-73
2023/10/08 12:45:52;;;;;;;9.40;2.90;;;16.80;99.90;;;;;;5046546;28;20051;-72
2023/10/08 12:48:22;;;;;;;8.65;2.50;;;16.80;99.90;;;;;;5049847;28;20033;-72
2023/10/08 12:50:56;;;;;;;7.45;1.85;;;16.90;99.90;;;;;;5051664;28;20067;-72
2023/10/08 12:53:39;;;;;;;7.13;1.85;;;16.90;99.90;;;;;;5034538;28;20049;-72
2023/10/08 12:56:15;;;;;;;8.23;1.85;;;16.90;99.90;;;;;;5051663;28;20044;-72
2023/10/08 12:58:47;;;;;;;8.27;1.80;;;17.00;99.90;;;;;;5052457;28;20052;-72
2023/10/08 13:01:17;;;;;;;9.32;2.10;;;17.00;99.90;;;;;;5031159;28;20041;-72
2023/10/08 13:03:47;;;;;;;6.55;1.88;;;17.00;99.90;;;;;;5031725;28;20049;-72
2023/10/08 13:06:28;;;;;;;10.05;2.40;;;17.00;99.90;;;;;;5049365;28;20044;-72
2023/10/08 13:08:55;;;;;;;8.25;1.55;;;17.00;99.90;;;;;;5073020;28;20048;-72
2023/10/08 13:11:24;;;;;;;6.85;1.63;;;17.10;99.90;;;;;;5071778;28;20041;-72
2023/10/08 13:13:52;;;;;;;4.10;1.50;;;17.20;99.90;;;;;;5070771;28;20400;-72
2023/10/08 13:16:21;;;;;;;7.03;2.20;;;17.20;99.90;;;;;;5071598;28;20073;-72
2023/10/08 13:18:47;;;;;;;6.22;1.90;;;17.20;99.90;;;;;;5072131;28;20457;-72
2023/10/08 13:21:13;;;;;;;6.35;1.88;;;17.10;99.90;;;;;;5070349;28;20048;-72
2023/10/08 13:23:39;;;;;;;7.88;2.20;;;17.10;99.90;;;;;;5071004;28;20037;-72
2023/10/08 13:26:07;;;;;;;6.07;1.85;;;17.00;99.90;;;;;;5069499;28;20044;-72
2023/10/08 13:28:34;;;;;;;9.02;2.00;;;16.90;99.90;;;;;;5058198;28;20037;-72
2023/10/08 13:31:11;;;;;;;8.00;1.90;;;16.90;99.90;;;;;;5052058;28;20072;-72
2023/10/08 13:33:39;;;;;;;5.38;2.15;;;16.90;99.90;;;;;;5066610;28;20516;-72
2023/10/08 13:36:08;;;;;;;6.63;1.80;;;16.90;99.90;;;;;;5059808;28;20115;-71
2023/10/08 13:38:35;;;;;;;5.32;1.88;;;16.90;99.90;;;;;;5050671;28;20047;-71
2023/10/08 13:41:06;;;;;;;7.07;1.92;;;16.90;99.90;;;;;;5050991;28;20052;-71
2023/10/08 13:43:35;;;;;;;8.38;2.85;;;16.90;99.90;;;;;;5049425;28;20057;-71
2023/10/08 13:46:13;;;;;;;8.43;2.47;;;16.90;99.90;;;;;;5050569;28;20064;-70
2023/10/08 13:48:51;;;;;;;6.65;1.73;;;16.80;99.90;;;;;;5053632;28;20066;-71
2023/10/08 13:51:28;;;;;;;6.65;1.70;;;16.80;99.90;;;;;;5059502;28;20424;-70
2023/10/08 13:54:00;;;;;;;7.95;1.90;;;16.80;99.90;;;;;;5069374;28;20041;-71
2023/10/08 13:56:30;;;;;;;8.57;2.38;;;16.80;99.90;;;;;;5056874;28;20470;-71
2023/10/08 13:59:16;;;;;;;6.53;1.63;;;16.70;99.90;;;;;;5059568;28;20777;-71
2023/10/08 14:01:43;;;;;;;8.55;1.90;;;16.70;99.90;;;;;;5042683;28;20178;-71
2023/10/08 14:04:09;;;;;;;8.15;2.17;;;16.70;99.90;;;;;;5067628;28;20060;-71
2023/10/08 14:06:36;;;;;;;7.05;1.73;;;16.70;99.90;;;;;;5060118;28;20510;-71
2023/10/08 14:09:12;;;;;;;6.35;2.10;;;16.60;99.90;;;;;;5068001;28;20048;-71
2023/10/08 14:11:38;;;;;;;9.07;4.00;;;16.70;99.90;;;;;;5060305;28;20052;-71
2023/10/08 14:14:07;;;;;;;10.32;2.92;;;16.60;99.90;;;;;;5051355;28;20073;-71
2023/10/08 14:16:42;;;;;;;7.07;1.90;;;16.60;99.90;;;;;;5056113;28;20088;-71
2023/10/08 14:19:12;;;;;;;6.78;1.70;;;16.60;99.90;;;;;;5050810;28;20053;-71
2023/10/08 14:21:49;;;;;;;6.35;1.65;;;16.60;99.90;;;;;;5051685;28;20059;-71
2023/10/08 14:24:16;;;;;;;8.27;3.28;;;16.50;99.90;;;;;;5047473;28;20049;-71
2023/10/08 14:26:43;;;;;;;7.03;1.95;;;16.40;99.90;;;;;;5050196;28;20053;-70
2023/10/08 14:29:14;;;;;;;7.75;1.60;;;16.50;99.90;;;;;;5054021;28;20106;-70
2023/10/08 14:31:42;;;;;;;8.65;2.70;;;16.40;99.90;;;;;;5049114;28;20097;-71
2023/10/08 14:44:56;;;;;;;6.97;2.53;;;16.40;99.90;;;;;;5071020;28;20452;-70